createdAt,value
2023-10-08T00:00:43.463Z,0.2
2023-10-08T00:01:58.140Z,0.5
2023-10-08T00:03:12.801Z,0.4
2023-10-08T00:04:27.491Z,0.6
2023-10-08T00:05:42.153Z,0.5
2023-10-08T00:06:56.830Z,0.6
2023-10-08T00:08:11.503Z,0.4
2023-10-08T00:09:25.453Z,0.6
2023-10-08T00:10:40.124Z,0.9
2023-10-08T00:11:54.778Z,0.3
2023-10-08T00:13:09.458Z,0.3
2023-10-08T00:14:24.134Z,0.5
2023-10-08T00:16:53.472Z,0.2
2023-10-08T00:18:08.162Z,0.3
2023-10-08T00:20:37.501Z,0.3
2023-10-08T00:21:52.172Z,1
2023-10-08T00:23:06.851Z,0.4
2023-10-08T00:24:21.510Z,0.6
2023-10-08T00:26:51.002Z,0.1
2023-10-08T00:28:05.000Z,0.4
2023-10-08T00:29:19.659Z,0.7
2023-10-08T00:34:17.619Z,0.5
2023-10-08T00:35:32.299Z,0.5
2023-10-08T00:36:46.973Z,0.3
2023-10-08T00:38:01.638Z,0.6
2023-10-08T00:39:16.325Z,0.2
2023-10-08T00:40:31.002Z,0.1
2023-10-08T00:41:45.667Z,0.3
2023-10-08T00:44:15.007Z,0.4
2023-10-08T00:45:29.680Z,0.6
2023-10-08T00:47:59.024Z,0.7
2023-10-08T00:49:12.975Z,0.3
2023-10-08T00:50:27.649Z,0.2
2023-10-08T00:54:11.675Z,0.4
2023-10-08T00:57:55.676Z,0.3
2023-10-08T00:59:10.366Z,0.2
2023-10-08T01:00:25.034Z,0.9
2023-10-08T01:01:39.707Z,0.3
2023-10-08T01:02:54.368Z,0.4
2023-10-08T01:05:23.716Z,0.5
2023-10-08T01:06:37.682Z,0.4
2023-10-08T01:07:52.348Z,0.4
2023-10-08T01:10:21.681Z,0.4
2023-10-08T01:11:36.352Z,0.5
2023-10-08T01:12:51.033Z,0.7
2023-10-08T01:14:05.698Z,0.5
2023-10-08T01:15:20.381Z,0.5
2023-10-08T01:16:35.055Z,0.5
2023-10-08T01:19:04.389Z,0.6
2023-10-08T01:20:19.067Z,0.7
2023-10-08T01:22:48.423Z,0.4
2023-10-08T01:24:02.360Z,0.6
2023-10-08T01:25:17.042Z,0.4
2023-10-08T01:26:31.705Z,0.6
2023-10-08T01:27:46.384Z,1
2023-10-08T01:31:30.395Z,0.2
2023-10-08T01:32:45.066Z,0.5
2023-10-08T01:33:59.741Z,1
2023-10-08T01:36:29.024Z,0.8
2023-10-08T01:40:11.789Z,0
2023-10-08T01:41:25.394Z,0.2
2023-10-08T01:42:39.855Z,0.1
2023-10-08T01:43:54.330Z,0.3
2023-10-08T01:45:08.795Z,0.1
2023-10-08T01:46:23.253Z,0.1
2023-10-08T01:47:37.722Z,0
2023-10-08T01:48:52.192Z,0.2
2023-10-08T01:50:06.668Z,0
2023-10-08T01:51:21.117Z,0
2023-10-08T01:52:35.583Z,0
2023-10-08T01:53:50.052Z,0
2023-10-08T01:55:04.529Z,0
2023-10-08T01:56:18.127Z,0
2023-10-08T01:57:32.712Z,0
2023-10-08T02:00:01.662Z,0
2023-10-08T02:01:16.124Z,0
2023-10-08T02:02:30.593Z,0
2023-10-08T02:03:45.059Z,0
2023-10-08T02:04:59.513Z,0.2
2023-10-08T02:06:13.980Z,0
2023-10-08T02:07:28.453Z,0
2023-10-08T02:09:57.393Z,0
2023-10-08T02:11:11.997Z,0
2023-10-08T02:12:26.466Z,0
2023-10-08T02:13:41.050Z,0
2023-10-08T02:14:55.515Z,0
2023-10-08T02:16:09.994Z,0
2023-10-08T02:18:38.925Z,0
2023-10-08T02:19:53.399Z,0
2023-10-08T02:22:22.312Z,0
2023-10-08T02:24:51.265Z,0
2023-10-08T02:26:05.718Z,0
2023-10-08T02:27:20.196Z,0
2023-10-08T02:28:34.653Z,0
2023-10-08T02:31:03.594Z,0
2023-10-08T02:32:18.047Z,0
2023-10-08T02:34:46.993Z,0
2023-10-08T02:37:15.919Z,0
2023-10-08T02:39:43.985Z,0
2023-10-08T02:40:58.439Z,0
2023-10-08T02:42:12.915Z,0
2023-10-08T02:43:27.387Z,0
2023-10-08T02:44:41.858Z,0
2023-10-08T02:47:10.781Z,0
2023-10-08T02:49:39.724Z,0
2023-10-08T02:50:54.316Z,0
2023-10-08T02:52:08.783Z,0
2023-10-08T02:54:37.723Z,0
2023-10-08T02:55:52.188Z,0
2023-10-08T02:57:06.661Z,0
2023-10-08T02:59:34.719Z,0
2023-10-08T03:00:49.176Z,0
2023-10-08T03:02:03.646Z,0
2023-10-08T03:04:32.578Z,0
2023-10-08T03:05:47.053Z,0
2023-10-08T03:07:01.518Z,0
2023-10-08T03:09:30.451Z,0
2023-10-08T03:10:44.904Z,0
2023-10-08T03:11:59.390Z,0
2023-10-08T03:14:28.306Z,0
2023-10-08T03:15:42.777Z,0
2023-10-08T03:16:57.255Z,0
2023-10-08T03:19:25.305Z,0
2023-10-08T03:20:39.780Z,0
2023-10-08T03:21:54.243Z,0.1
2023-10-08T03:24:23.170Z,0
2023-10-08T03:25:37.639Z,0
2023-10-08T03:26:52.099Z,0
2023-10-08T03:28:06.578Z,0
2023-10-08T03:29:21.037Z,0
2023-10-08T03:30:35.507Z,0
2023-10-08T03:31:49.986Z,0
2023-10-08T03:34:18.903Z,0
2023-10-08T03:35:33.386Z,0
2023-10-08T03:36:47.853Z,0
2023-10-08T03:39:15.905Z,0
2023-10-08T03:40:30.361Z,0
2023-10-08T03:41:44.838Z,0
2023-10-08T03:44:13.766Z,0
2023-10-08T03:45:28.223Z,0
2023-10-08T03:46:42.705Z,0
2023-10-08T03:49:11.623Z,0
2023-10-08T03:51:40.558Z,0
2023-10-08T03:54:09.493Z,0.2
2023-10-08T03:55:24.093Z,0
2023-10-08T03:56:38.553Z,0.1
2023-10-08T03:59:06.604Z,0.1
2023-10-08T04:00:21.205Z,0
2023-10-08T04:01:35.665Z,0
2023-10-08T04:02:50.130Z,0
2023-10-08T04:05:19.064Z,0
2023-10-08T04:06:33.538Z,0.3
2023-10-08T04:09:02.473Z,0.2
2023-10-08T04:10:16.936Z,0.1
2023-10-08T04:11:31.396Z,0
2023-10-08T04:14:00.329Z,0
2023-10-08T04:15:14.804Z,0.2
2023-10-08T04:16:29.267Z,0
2023-10-08T04:17:43.862Z,0
2023-10-08T04:18:58.326Z,0.1
2023-10-08T04:20:12.781Z,0
2023-10-08T04:21:27.265Z,0
2023-10-08T04:23:56.194Z,0.3
2023-10-08T04:26:25.131Z,0
2023-10-08T04:27:39.600Z,0.1
2023-10-08T04:28:54.060Z,0
2023-10-08T04:30:08.529Z,0
2023-10-08T04:31:22.988Z,0
2023-10-08T04:33:51.918Z,0
2023-10-08T04:35:06.389Z,0.3
2023-10-08T04:36:20.862Z,0.2
2023-10-08T04:38:49.785Z,0
2023-10-08T04:40:04.260Z,0
2023-10-08T04:41:18.718Z,0.2
2023-10-08T04:42:32.321Z,0
2023-10-08T04:43:46.776Z,0.1
2023-10-08T04:46:15.714Z,0.4
2023-10-08T04:48:44.639Z,0.1
2023-10-08T04:49:59.110Z,0
2023-10-08T04:51:13.591Z,0
2023-10-08T04:53:42.518Z,0
2023-10-08T04:54:56.978Z,0
2023-10-08T04:56:11.452Z,0
2023-10-08T04:58:40.331Z,0
2023-10-08T05:01:09.267Z,0
2023-10-08T05:03:38.113Z,0.1
2023-10-08T05:04:52.528Z,0.1
2023-10-08T05:06:06.932Z,0
2023-10-08T05:07:21.472Z,0
2023-10-08T05:08:35.901Z,0.2
2023-10-08T05:09:50.353Z,0
2023-10-08T05:11:04.780Z,0
2023-10-08T05:13:32.726Z,0
2023-10-08T05:16:01.561Z,0
2023-10-08T05:17:15.983Z,0
2023-10-08T05:18:30.383Z,0
2023-10-08T05:19:44.796Z,0
2023-10-08T05:20:59.224Z,0.2
2023-10-08T05:23:28.037Z,0.4
2023-10-08T05:24:42.459Z,0
2023-10-08T05:25:56.870Z,0.1
2023-10-08T05:27:11.280Z,0.1
2023-10-08T05:28:25.705Z,0
2023-10-08T05:29:40.104Z,0
2023-10-08T05:30:54.530Z,0
2023-10-08T05:33:23.347Z,0
2023-10-08T05:34:37.891Z,0
2023-10-08T05:35:52.293Z,0
2023-10-08T05:37:06.711Z,0
2023-10-08T05:38:21.115Z,0
2023-10-08T05:40:49.947Z,0
2023-10-08T05:43:18.765Z,0
2023-10-08T05:44:33.187Z,0
2023-10-08T05:45:47.597Z,0
2023-10-08T05:49:30.845Z,0
2023-10-08T05:50:45.245Z,0
2023-10-08T05:53:13.195Z,0.2
2023-10-08T05:54:27.610Z,0
2023-10-08T05:55:42.038Z,0.1
2023-10-08T05:58:10.851Z,0
2023-10-08T05:59:25.272Z,0
2023-10-08T06:00:39.687Z,0
2023-10-08T06:01:54.089Z,0
2023-10-08T06:04:22.924Z,0
2023-10-08T06:05:37.327Z,0
2023-10-08T06:06:51.744Z,0
2023-10-08T06:08:06.093Z,0
2023-10-08T06:09:20.576Z,0
2023-10-08T06:10:34.980Z,0
2023-10-08T06:13:02.939Z,0
2023-10-08T06:14:17.362Z,0
2023-10-08T06:15:31.763Z,0.1
2023-10-08T06:18:00.596Z,0
2023-10-08T06:19:15.017Z,0
2023-10-08T06:20:29.428Z,0
2023-10-08T06:22:58.240Z,0
2023-10-08T06:24:12.651Z,0
2023-10-08T06:25:27.065Z,0
2023-10-08T06:27:55.895Z,0
2023-10-08T06:29:10.308Z,0
2023-10-08T06:30:24.720Z,0
2023-10-08T06:32:52.676Z,0
2023-10-08T06:34:07.093Z,0
2023-10-08T06:35:21.507Z,0.1
2023-10-08T06:37:50.337Z,0
2023-10-08T06:40:19.155Z,0
2023-10-08T06:42:47.991Z,0
2023-10-08T06:44:02.390Z,0
2023-10-08T06:45:16.816Z,0
2023-10-08T06:47:45.000Z,0.1
2023-10-08T06:49:00.171Z,0
2023-10-08T06:50:14.579Z,0
2023-10-08T06:52:43.410Z,0
2023-10-08T06:53:57.829Z,0
2023-10-08T06:55:12.231Z,0
2023-10-08T06:56:25.769Z,0.1
2023-10-08T06:57:40.180Z,0.1
2023-10-08T06:58:54.592Z,0
2023-10-08T07:00:09.015Z,0
2023-10-08T07:02:37.829Z,0
2023-10-08T07:03:52.243Z,0
2023-10-08T07:05:06.665Z,0
2023-10-08T07:07:35.486Z,0
2023-10-08T07:08:49.903Z,0
2023-10-08T07:10:04.325Z,0
2023-10-08T07:12:33.148Z,0
2023-10-08T07:13:47.558Z,0
2023-10-08T07:15:01.967Z,0
2023-10-08T07:16:16.507Z,0
2023-10-08T07:17:30.912Z,0.1
2023-10-08T07:19:59.735Z,0
2023-10-08T07:23:42.980Z,0
2023-10-08T07:24:57.395Z,0.1
2023-10-08T07:26:11.810Z,0
2023-10-08T07:27:26.217Z,0
2023-10-08T07:28:40.586Z,0
2023-10-08T07:29:54.992Z,0
2023-10-08T07:32:23.807Z,0
2023-10-08T07:33:38.340Z,0
2023-10-08T07:34:52.766Z,0
2023-10-08T07:36:07.173Z,0
2023-10-08T07:37:21.597Z,0
2023-10-08T07:38:36.004Z,0.1
2023-10-08T07:39:50.412Z,0.2
2023-10-08T07:42:19.231Z,0
2023-10-08T07:43:33.646Z,0
2023-10-08T07:46:02.483Z,0.1
2023-10-08T07:47:16.895Z,0
2023-10-08T07:48:31.306Z,0
2023-10-08T07:49:45.715Z,0
2023-10-08T07:51:00.140Z,0.2
2023-10-08T07:52:14.547Z,0.2
2023-10-08T07:53:28.955Z,0.2
2023-10-08T07:54:43.379Z,0
2023-10-08T07:55:57.783Z,0.2
2023-10-08T07:57:12.207Z,0
2023-10-08T07:58:26.621Z,0.1
2023-10-08T07:59:41.023Z,0.3
2023-10-08T08:02:08.968Z,0
2023-10-08T08:03:23.379Z,0.1
2023-10-08T08:04:37.798Z,0
2023-10-08T08:05:52.206Z,0.2
2023-10-08T08:07:06.632Z,0
2023-10-08T08:08:21.044Z,0.1
2023-10-08T08:09:35.452Z,0
2023-10-08T08:10:49.994Z,0.1
2023-10-08T08:12:04.399Z,0.2
2023-10-08T08:13:18.823Z,0
2023-10-08T08:14:32.374Z,0
2023-10-08T08:17:00.324Z,0.3
2023-10-08T08:18:14.739Z,0
2023-10-08T08:19:29.145Z,0.1
2023-10-08T08:20:43.561Z,0
2023-10-08T08:21:57.965Z,0.1
2023-10-08T08:23:12.394Z,0.3
2023-10-08T08:25:41.222Z,0.2
2023-10-08T08:26:55.628Z,0.1
2023-10-08T08:28:10.043Z,0
2023-10-08T08:29:24.460Z,0.1
2023-10-08T08:31:53.277Z,0.8
2023-10-08T08:33:07.694Z,0.1
2023-10-08T08:34:21.234Z,0.3
2023-10-08T08:35:35.652Z,0.2
2023-10-08T08:36:50.068Z,0
2023-10-08T08:38:04.481Z,0
2023-10-08T08:39:18.016Z,0
2023-10-08T08:40:32.435Z,0.4
2023-10-08T08:41:46.851Z,0.1
2023-10-08T08:43:01.254Z,0
2023-10-08T08:44:15.678Z,0
2023-10-08T08:46:44.501Z,0.1
2023-10-08T08:47:58.901Z,0
2023-10-08T08:49:13.328Z,0
2023-10-08T08:50:27.724Z,0.2
2023-10-08T08:52:56.570Z,0
2023-10-08T08:54:10.978Z,0
2023-10-08T08:55:24.498Z,0
2023-10-08T08:56:38.918Z,0.1
2023-10-08T08:57:53.338Z,0.2
2023-10-08T09:00:22.160Z,0.1
2023-10-08T09:01:36.572Z,0.2
2023-10-08T09:02:50.992Z,0.2
2023-10-08T09:04:05.393Z,0.2
2023-10-08T09:05:19.809Z,0.4
2023-10-08T09:06:34.222Z,0.5
2023-10-08T09:07:48.643Z,0.2
2023-10-08T09:09:03.043Z,0.2
2023-10-08T09:10:17.467Z,0.1
2023-10-08T09:11:31.997Z,0.2
2023-10-08T09:12:46.422Z,0.2
2023-10-08T09:14:00.830Z,0
2023-10-08T09:15:15.236Z,0.1
2023-10-08T09:16:29.657Z,0.4
2023-10-08T09:17:44.066Z,0.1
2023-10-08T09:18:58.622Z,0.1
2023-10-08T09:21:27.436Z,0.5
2023-10-08T09:22:40.972Z,0
2023-10-08T09:23:55.389Z,0.2
2023-10-08T09:26:24.220Z,0.3
2023-10-08T09:27:38.633Z,0.2
2023-10-08T09:28:53.038Z,0
2023-10-08T09:31:21.870Z,0.2
2023-10-08T09:32:36.291Z,0
2023-10-08T09:33:50.687Z,0.2
2023-10-08T09:35:05.121Z,0.2
2023-10-08T09:36:19.531Z,0.3
2023-10-08T09:37:34.068Z,0.3
2023-10-08T09:38:48.495Z,0.1
2023-10-08T09:40:02.895Z,0
2023-10-08T09:41:17.326Z,0.6
2023-10-08T09:42:31.727Z,0.3
2023-10-08T09:43:46.144Z,0.1
2023-10-08T09:45:00.694Z,0
2023-10-08T09:46:15.239Z,0.1
2023-10-08T09:47:29.656Z,0.2
2023-10-08T09:51:12.895Z,0.1
2023-10-08T09:52:27.297Z,0.2
2023-10-08T09:53:41.710Z,0.3
2023-10-08T09:54:56.129Z,0.1
2023-10-08T09:56:10.530Z,0.2
2023-10-08T09:57:24.956Z,0.2
2023-10-08T09:58:39.366Z,0
2023-10-08T10:01:08.201Z,0.2
2023-10-08T10:02:21.737Z,0
2023-10-08T10:04:50.556Z,0.2
2023-10-08T10:06:04.972Z,0
2023-10-08T10:07:19.387Z,0.4
2023-10-08T10:08:33.788Z,0.1
2023-10-08T10:11:02.619Z,0
2023-10-08T10:12:17.036Z,0.2
2023-10-08T10:13:31.449Z,0.1
2023-10-08T10:16:00.264Z,0.2
2023-10-08T10:17:14.686Z,0.3
2023-10-08T10:18:28.228Z,0.3
2023-10-08T10:20:57.047Z,0
2023-10-08T10:22:11.451Z,0.2
2023-10-08T10:23:25.879Z,0.2
2023-10-08T10:27:09.112Z,0
2023-10-08T10:28:23.531Z,0.1
2023-10-08T10:30:52.342Z,0.2
2023-10-08T10:32:06.758Z,0
2023-10-08T10:33:21.188Z,0
2023-10-08T10:34:35.583Z,0.3
2023-10-08T10:37:04.426Z,0.4
2023-10-08T10:38:17.954Z,0.2
2023-10-08T10:39:32.368Z,0.1
2023-10-08T10:40:46.790Z,0.3
2023-10-08T10:42:01.185Z,0.3
2023-10-08T10:43:15.598Z,0.2
2023-10-08T10:45:44.433Z,0.3
2023-10-08T10:46:58.850Z,0.3
2023-10-08T10:49:27.661Z,0.1
2023-10-08T10:50:42.080Z,0
2023-10-08T10:51:56.490Z,0.1
2023-10-08T10:53:10.921Z,0.7
2023-10-08T10:54:25.330Z,0.1
2023-10-08T10:55:38.857Z,0.2
2023-10-08T10:56:53.280Z,0.2
2023-10-08T10:58:07.690Z,0
2023-10-08T10:59:22.093Z,0.3
2023-10-08T11:00:36.521Z,0.2
2023-10-08T11:01:50.932Z,0.1
2023-10-08T11:04:19.743Z,0.2
2023-10-08T11:05:34.169Z,0.8
2023-10-08T11:06:48.578Z,0.1
2023-10-08T11:08:02.984Z,0.4
2023-10-08T11:09:17.425Z,0.1
2023-10-08T11:10:31.819Z,0.4
2023-10-08T11:11:46.231Z,0.1
2023-10-08T11:13:00.638Z,0
2023-10-08T11:14:15.057Z,0.1
2023-10-08T11:15:29.466Z,0.2
2023-10-08T11:16:43.889Z,0.4
2023-10-08T11:17:58.294Z,0.7
2023-10-08T11:20:27.120Z,0.1
2023-10-08T11:21:41.529Z,0.4
2023-10-08T11:22:55.950Z,0
2023-10-08T11:24:10.358Z,0.1
2023-10-08T11:25:23.890Z,0.4
2023-10-08T11:26:38.314Z,0.1
2023-10-08T11:30:21.552Z,0.2
2023-10-08T11:31:35.967Z,0
2023-10-08T11:32:50.375Z,0.3
2023-10-08T11:34:04.787Z,0.3
2023-10-08T11:35:19.212Z,0.5
2023-10-08T11:36:33.613Z,0
2023-10-08T11:37:48.024Z,0.2
2023-10-08T11:39:02.441Z,0.3
2023-10-08T11:40:16.850Z,0.2
2023-10-08T11:41:31.267Z,0.1
2023-10-08T11:42:45.804Z,0.3
2023-10-08T11:44:00.228Z,0
2023-10-08T11:45:14.624Z,0.1
2023-10-08T11:46:29.046Z,0.1
2023-10-08T11:47:43.463Z,0.2
2023-10-08T11:48:57.882Z,0.5
2023-10-08T11:50:12.285Z,0.3
2023-10-08T11:51:26.704Z,0.5
2023-10-08T11:53:55.527Z,0.6
2023-10-08T11:55:09.940Z,0.1
2023-10-08T11:56:24.342Z,0.1
2023-10-08T11:57:38.765Z,0.2
2023-10-08T12:00:06.739Z,0.3
2023-10-08T12:01:21.279Z,0.3
2023-10-08T12:02:35.679Z,0.5
2023-10-08T12:05:04.503Z,0.3
2023-10-08T12:06:18.922Z,0.1
2023-10-08T12:07:33.335Z,0.3
2023-10-08T12:08:47.743Z,0
2023-10-08T12:10:02.162Z,1
2023-10-08T12:11:16.573Z,0.2
2023-10-08T12:12:30.980Z,0.2
2023-10-08T12:13:45.396Z,0.3
2023-10-08T12:14:59.817Z,0.5
2023-10-08T12:16:14.227Z,0.2
2023-10-08T12:17:28.635Z,0.1
2023-10-08T12:19:57.474Z,0.2
2023-10-08T12:21:11.878Z,0.1
2023-10-08T12:22:26.422Z,0.4
2023-10-08T12:23:40.822Z,0.2
2023-10-08T12:24:55.249Z,0.1
2023-10-08T12:26:09.653Z,0.6
2023-10-08T12:28:38.485Z,0.1
2023-10-08T12:29:52.901Z,0
2023-10-08T12:31:07.299Z,0.9
2023-10-08T12:32:21.708Z,0.1
2023-10-08T12:33:36.127Z,0.9
2023-10-08T12:34:50.547Z,0.3
2023-10-08T12:36:04.950Z,0.2
2023-10-08T12:37:19.374Z,0.5
2023-10-08T12:38:33.779Z,0.4
2023-10-08T12:39:48.197Z,0.2
2023-10-08T12:41:02.604Z,0.4
2023-10-08T12:43:31.444Z,0.5
2023-10-08T12:44:45.851Z,0.3
2023-10-08T12:46:00.268Z,0.2
2023-10-08T12:47:14.683Z,0.2
2023-10-08T12:48:28.201Z,0.5
2023-10-08T12:49:42.618Z,0.1
2023-10-08T12:50:57.043Z,0.3
2023-10-08T12:52:11.444Z,0.4
2023-10-08T12:54:40.275Z,0.3
2023-10-08T12:55:54.700Z,0
2023-10-08T12:57:09.113Z,0.3
2023-10-08T12:59:37.931Z,0.3
2023-10-08T13:00:52.338Z,0.3
2023-10-08T13:02:06.757Z,0.3
2023-10-08T13:03:21.162Z,0.4
2023-10-08T13:04:35.582Z,0.3
2023-10-08T13:05:49.987Z,0.4
2023-10-08T13:07:04.405Z,0.7
2023-10-08T13:10:47.649Z,0.1
2023-10-08T13:12:02.055Z,0.1
2023-10-08T13:13:15.593Z,0.2
2023-10-08T13:14:30.002Z,0.4
2023-10-08T13:15:44.427Z,0.6
2023-10-08T13:19:27.656Z,0.2
2023-10-08T13:20:42.088Z,0.5
2023-10-08T13:21:56.493Z,0.1
2023-10-08T13:23:10.905Z,0.1
2023-10-08T13:24:25.309Z,0.2
2023-10-08T13:25:39.741Z,0
2023-10-08T13:26:54.145Z,0.3
2023-10-08T13:33:06.217Z,0.1
2023-10-08T13:34:20.614Z,0.3
2023-10-08T13:35:35.028Z,0.2
2023-10-08T13:36:49.456Z,0
2023-10-08T13:38:03.862Z,0.2
2023-10-08T13:39:18.269Z,0
2023-10-08T13:40:32.682Z,0.1
2023-10-08T13:41:47.108Z,0.2
2023-10-08T13:44:15.936Z,0.3
2023-10-08T13:45:30.337Z,0.2
2023-10-08T13:47:59.179Z,0.2
2023-10-08T13:49:13.572Z,0.6
2023-10-08T13:50:27.127Z,0.4
2023-10-08T13:51:41.525Z,0.1
2023-10-08T13:52:55.939Z,0.4
2023-10-08T13:55:24.775Z,0.4
2023-10-08T13:56:39.180Z,0.1
2023-10-08T13:59:08.019Z,0.1
2023-10-08T14:00:22.429Z,0.3
2023-10-08T14:02:51.251Z,0.5
2023-10-08T14:04:05.666Z,0.9
2023-10-08T14:05:20.084Z,0.1
2023-10-08T14:06:34.615Z,0.2
2023-10-08T14:09:03.443Z,0.3
2023-10-08T14:10:17.842Z,0.4
2023-10-08T14:11:32.265Z,0.2
2023-10-08T14:14:01.085Z,0.2
2023-10-08T14:15:15.507Z,0
2023-10-08T14:16:29.911Z,0.2
2023-10-08T14:17:44.329Z,0.3
2023-10-08T14:18:58.736Z,0.1
2023-10-08T14:20:13.150Z,0.3
2023-10-08T14:21:27.573Z,0.2
2023-10-08T14:22:41.977Z,0.2
2023-10-08T14:23:56.397Z,0
2023-10-08T14:25:09.924Z,0.1
2023-10-08T14:26:24.349Z,0.2
2023-10-08T14:28:53.166Z,0.2
2023-10-08T14:30:07.574Z,0.1
2023-10-08T14:31:22.008Z,0.4
2023-10-08T14:32:36.416Z,0.1
2023-10-08T14:36:19.646Z,0.3
2023-10-08T14:37:34.065Z,0.4
2023-10-08T14:38:48.468Z,0.4
2023-10-08T14:40:02.896Z,0.4
2023-10-08T14:41:17.308Z,0.1
2023-10-08T14:43:46.119Z,0.4
2023-10-08T14:45:00.545Z,0.2
2023-10-08T14:46:14.954Z,0.5
2023-10-08T14:48:43.774Z,0.5
2023-10-08T14:49:58.202Z,0.1
2023-10-08T14:51:12.598Z,0.2
2023-10-08T14:52:27.017Z,0.2
2023-10-08T14:53:41.565Z,0.1
2023-10-08T14:54:55.980Z,0.1
2023-10-08T14:57:24.791Z,0.3
2023-10-08T14:58:39.220Z,0.1
2023-10-08T14:59:53.629Z,0.1
2023-10-08T15:01:08.045Z,0.2
2023-10-08T15:02:22.443Z,0.5
2023-10-08T15:03:36.860Z,0.3
2023-10-08T15:04:51.286Z,0.2
2023-10-08T15:06:05.687Z,0.1
2023-10-08T15:08:34.514Z,0.6
2023-10-08T15:09:48.932Z,0.6
2023-10-08T15:11:03.344Z,1
2023-10-08T15:13:32.169Z,0.4
2023-10-08T15:16:00.000Z,0.5
2023-10-08T15:17:14.540Z,0.1
2023-10-08T15:18:28.940Z,0.5
2023-10-08T15:19:43.357Z,0.6
2023-10-08T15:20:57.777Z,0.5
2023-10-08T15:23:26.601Z,0.3
2023-10-08T15:24:41.017Z,0.3
2023-10-08T15:25:55.413Z,0.5
2023-10-08T15:27:09.847Z,0
2023-10-08T15:28:24.250Z,0.3
2023-10-08T15:29:38.662Z,1.3
2023-10-08T15:30:53.074Z,0.4
2023-10-08T15:32:07.484Z,0.3
2023-10-08T15:34:36.319Z,0.2
2023-10-08T15:37:05.133Z,0.2
2023-10-08T15:38:18.681Z,0.4
2023-10-08T15:39:33.087Z,0.4
2023-10-08T15:40:47.515Z,0.6
2023-10-08T15:42:01.929Z,0.2
2023-10-08T15:43:16.323Z,0.2
2023-10-08T15:44:30.746Z,0.3
2023-10-08T15:46:59.570Z,0.7
2023-10-08T15:48:13.975Z,0.2
2023-10-08T15:49:28.393Z,1.1
2023-10-08T15:50:42.801Z,0.4
2023-10-08T15:51:57.227Z,0.5
2023-10-08T15:53:11.628Z,0.4
2023-10-08T15:54:26.046Z,0.2
2023-10-08T15:56:54.878Z,0.3
2023-10-08T15:58:08.403Z,0.3
2023-10-08T15:59:22.821Z,0.6
2023-10-08T16:01:51.661Z,0.9
2023-10-08T16:03:06.067Z,0.4
2023-10-08T16:04:20.480Z,0.5
2023-10-08T16:05:34.902Z,0.5
2023-10-08T16:06:49.307Z,0.4
2023-10-08T16:08:03.710Z,0.5
2023-10-08T16:09:18.138Z,0.6
2023-10-08T16:11:46.953Z,0.5
2023-10-08T16:14:15.794Z,0.6
2023-10-08T16:17:59.030Z,0.2
2023-10-08T16:19:13.565Z,0.8
2023-10-08T16:20:27.965Z,0.7
2023-10-08T16:21:42.395Z,0.4
2023-10-08T16:22:56.790Z,0.5
2023-10-08T16:24:11.204Z,0.5
2023-10-08T16:25:25.625Z,0.9
2023-10-08T16:27:54.443Z,0.5
2023-10-08T16:29:08.865Z,0.8
2023-10-08T16:30:23.285Z,0.4
2023-10-08T16:31:37.698Z,0.9
2023-10-08T16:32:52.113Z,0.9
2023-10-08T16:34:06.515Z,1
2023-10-08T16:37:49.759Z,1.6
2023-10-08T16:39:04.173Z,1.2
2023-10-08T16:40:18.584Z,1.1
2023-10-08T16:42:47.416Z,1.2
2023-10-08T16:44:01.952Z,2.1
2023-10-08T16:45:16.358Z,1.4
2023-10-08T16:46:30.771Z,1.9
2023-10-08T16:47:45.174Z,1
2023-10-08T16:48:59.592Z,1.7
2023-10-08T16:50:14.019Z,1.7
2023-10-08T16:51:28.432Z,2.1
2023-10-08T16:52:42.846Z,1.1
2023-10-08T16:53:57.251Z,2.2
2023-10-08T16:55:11.660Z,2.6
2023-10-08T16:56:26.068Z,2.4
2023-10-08T16:57:40.486Z,3.7
2023-10-08T16:58:54.894Z,2.6
2023-10-08T17:01:23.830Z,2.2
2023-10-08T17:05:07.253Z,2.5
2023-10-08T17:07:36.171Z,1.8
2023-10-08T17:08:50.638Z,2.4
2023-10-08T17:10:05.122Z,2.7
2023-10-08T17:11:19.570Z,1.8
2023-10-08T17:12:34.043Z,1.5
2023-10-08T17:13:48.518Z,1.9
2023-10-08T17:15:02.985Z,1.7
2023-10-08T17:16:17.445Z,0.9
2023-10-08T17:18:46.381Z,1.6
2023-10-08T17:20:00.850Z,0.7
2023-10-08T17:22:29.778Z,0.6
2023-10-08T17:23:44.242Z,1
2023-10-08T17:26:13.179Z,0.6
2023-10-08T17:27:27.647Z,0.4
2023-10-08T17:28:42.111Z,0.8
2023-10-08T17:29:56.790Z,0.5
2023-10-08T17:31:11.459Z,0.5
2023-10-08T17:32:26.147Z,1
2023-10-08T17:34:55.492Z,0.6
2023-10-08T17:36:10.166Z,1.3
2023-10-08T17:37:24.829Z,1.1
2023-10-08T17:39:54.188Z,1.4
2023-10-08T17:41:08.850Z,1.2
2023-10-08T17:42:22.785Z,1.3
2023-10-08T17:43:37.458Z,1
2023-10-08T17:44:52.145Z,0.9
2023-10-08T17:46:06.820Z,0.9
2023-10-08T17:48:36.000Z,1
2023-10-08T17:49:50.823Z,1.3
2023-10-08T17:51:05.506Z,1.6
2023-10-08T17:54:49.528Z,1
2023-10-08T17:57:18.859Z,0.7
2023-10-08T17:58:33.544Z,1.2
2023-10-08T17:59:48.206Z,0.8
2023-10-08T18:02:17.661Z,1.8
2023-10-08T18:06:01.699Z,1.8
2023-10-08T18:07:16.380Z,1.7
2023-10-08T18:08:31.038Z,1.3
2023-10-08T18:09:45.723Z,1.1
2023-10-08T18:11:00.393Z,2.2
2023-10-08T18:12:15.053Z,2.1
2023-10-08T18:13:29.738Z,0.6
2023-10-08T18:14:44.406Z,1.1
2023-10-08T18:15:59.090Z,1.4
2023-10-08T18:18:28.546Z,1.1
2023-10-08T18:19:43.218Z,0.6
2023-10-08T18:20:57.897Z,0.7
2023-10-08T18:22:12.561Z,1.2
2023-10-08T18:23:27.238Z,0.8
2023-10-08T18:24:41.910Z,0.8
2023-10-08T18:25:56.595Z,0.4
2023-10-08T18:28:25.937Z,1
2023-10-08T18:29:40.596Z,0.6
2023-10-08T18:32:09.958Z,0.9
2023-10-08T18:33:24.626Z,1
2023-10-08T18:34:39.294Z,0.7
2023-10-08T18:35:53.248Z,0.6
2023-10-08T18:37:07.901Z,0.3
2023-10-08T18:38:22.580Z,1
2023-10-08T18:39:37.266Z,0.7
2023-10-08T18:42:06.607Z,0.5
2023-10-08T18:45:50.625Z,1.2
2023-10-08T18:47:05.291Z,1
2023-10-08T18:48:19.972Z,0.7
2023-10-08T18:49:34.633Z,0.6
2023-10-08T18:50:49.322Z,0.9
2023-10-08T18:53:18.658Z,0.6
2023-10-08T18:54:33.327Z,0.8
2023-10-08T18:55:48.009Z,0.6
2023-10-08T18:58:17.365Z,0.8
2023-10-08T18:59:31.303Z,0.6
2023-10-08T19:00:45.976Z,0.6
2023-10-08T19:02:00.652Z,0.5
2023-10-08T19:03:15.287Z,0.4
2023-10-08T19:04:29.993Z,0.8
2023-10-08T19:06:59.342Z,0.4
2023-10-08T19:08:14.011Z,0.5
2023-10-08T19:09:28.694Z,0.7
2023-10-08T19:10:43.366Z,0.8
2023-10-08T19:11:58.029Z,0.4
2023-10-08T19:13:12.719Z,0.5
2023-10-08T19:14:27.379Z,0.5
2023-10-08T19:15:42.048Z,0.5
2023-10-08T19:16:56.852Z,0.2
2023-10-08T19:19:26.199Z,0.3
2023-10-08T19:20:40.861Z,0.8
2023-10-08T19:21:54.810Z,0.8
2023-10-08T19:24:24.145Z,0.7
2023-10-08T19:25:38.834Z,0.5
2023-10-08T19:26:53.505Z,0.4
2023-10-08T19:30:37.525Z,0.8
2023-10-08T19:33:06.868Z,0.6
2023-10-08T19:34:21.539Z,0.6
2023-10-08T19:35:36.203Z,0.8
2023-10-08T19:36:50.896Z,0.3
2023-10-08T19:38:05.554Z,0.4
2023-10-08T19:39:20.228Z,0.5
2023-10-08T19:41:49.708Z,0.8
2023-10-08T19:43:04.369Z,0.8
2023-10-08T19:45:33.710Z,0.4
2023-10-08T19:46:48.366Z,0.5
2023-10-08T19:48:03.057Z,0.2
2023-10-08T19:49:17.744Z,0.4
2023-10-08T19:50:32.421Z,0.3
2023-10-08T19:54:16.432Z,0.6
2023-10-08T19:55:31.096Z,0.3
2023-10-08T19:56:45.741Z,0.7
2023-10-08T19:57:59.716Z,0.6
2023-10-08T19:59:14.396Z,0.5
2023-10-08T20:00:29.065Z,0.5
2023-10-08T20:01:43.751Z,0.8
2023-10-08T20:04:13.082Z,0.3
2023-10-08T20:05:27.760Z,0.9
2023-10-08T20:09:11.781Z,0.5
2023-10-08T20:10:26.456Z,0.4
2023-10-08T20:11:41.121Z,0.3
2023-10-08T20:12:55.782Z,0.6
2023-10-08T20:14:10.466Z,1.2
2023-10-08T20:15:25.157Z,0.9
2023-10-08T20:16:39.820Z,0.6
2023-10-08T20:17:54.499Z,0.9
2023-10-08T20:20:23.845Z,0.6
2023-10-08T20:21:37.793Z,0.2
2023-10-08T20:22:52.453Z,0.6
2023-10-08T20:26:36.486Z,0.5
2023-10-08T20:27:51.162Z,0.6
2023-10-08T20:29:05.831Z,0.6
2023-10-08T20:31:35.172Z,0.3
2023-10-08T20:32:49.860Z,0.5
2023-10-08T20:34:04.532Z,0.3
2023-10-08T20:35:19.192Z,0.4
2023-10-08T20:37:48.550Z,0.5
2023-10-08T20:40:17.164Z,0.5
2023-10-08T20:41:31.843Z,0.3
2023-10-08T20:42:46.511Z,0.5
2023-10-08T20:44:01.184Z,0.6
2023-10-08T20:46:30.536Z,0.5
2023-10-08T20:47:45.192Z,0.5
2023-10-08T20:51:29.221Z,0.3
2023-10-08T20:52:43.886Z,0.4
2023-10-08T20:55:12.513Z,0.5
2023-10-08T20:57:41.134Z,0.4
2023-10-08T21:00:10.468Z,0.3
2023-10-08T21:01:24.407Z,0.5
2023-10-08T21:03:53.766Z,0.4
2023-10-08T21:05:08.430Z,0.2
2023-10-08T21:06:23.118Z,0.8
2023-10-08T21:08:52.466Z,0.6
2023-10-08T21:10:07.137Z,0.8
2023-10-08T21:11:21.803Z,0.7
2023-10-08T21:12:36.481Z,0.9
2023-10-08T21:13:51.153Z,0.7
2023-10-08T21:15:05.832Z,0.5
2023-10-08T21:17:35.173Z,1
2023-10-08T21:18:49.838Z,0.3
2023-10-08T21:21:19.189Z,1.3
2023-10-08T21:23:48.532Z,0.9
2023-10-08T21:26:17.889Z,0.6
2023-10-08T21:27:32.569Z,0.9
2023-10-08T21:30:02.029Z,0.8
2023-10-08T21:31:16.702Z,0.8
2023-10-08T21:32:31.379Z,0.8
2023-10-08T21:35:00.730Z,0.7
2023-10-08T21:36:15.408Z,0.6
2023-10-08T21:37:30.073Z,0.5
2023-10-08T21:38:44.747Z,0.6
2023-10-08T21:39:59.389Z,0.3
2023-10-08T21:41:14.095Z,0.4
2023-10-08T21:43:43.436Z,0.6
2023-10-08T21:44:58.119Z,0.7
2023-10-08T21:46:12.781Z,0.5
2023-10-08T21:47:27.453Z,0.8
2023-10-08T21:48:42.134Z,0.8
2023-10-08T21:49:56.809Z,0.7
2023-10-08T21:52:26.146Z,0.3
2023-10-08T21:53:40.955Z,0.4
2023-10-08T21:56:10.292Z,0.7
2023-10-08T21:57:24.941Z,1
2023-10-08T21:58:39.635Z,0.5
2023-10-08T22:01:08.984Z,1.2
2023-10-08T22:02:23.666Z,0.5
2023-10-08T22:03:38.000Z,0.4